Time;durP1;ratioP1;P1;durP2;ratioP2;P2;SDS_P1;SDS_P2;PMS_P1;PMS_P2;Temp;Humidity;BMP_temperature;BMP_pressure;BME280_temperature;BME280_humidity;BME280_pressure;Samples;Min_cycle;Max_cycle;Signal;HPM_P1;HPM_P2
2021/08/03 00:00:57;;;;;;;4.93;2.40;;;16.50;91.40;;;;;;5109605;28;20452;-78
2021/08/03 00:03:30;;;;;;;2.30;2.10;;;16.50;91.40;;;;;;5102675;28;20464;-78
2021/08/03 00:05:58;;;;;;;3.13;2.03;;;16.60;91.20;;;;;;5100516;28;20489;-77
2021/08/03 00:08:33;;;;;;;2.83;2.20;;;16.60;91.00;;;;;;5103752;28;20489;-78
2021/08/03 00:11:04;;;;;;;2.90;1.97;;;16.60;90.50;;;;;;5110888;28;20435;-77
2021/08/03 00:13:33;;;;;;;2.30;1.80;;;16.60;90.30;;;;;;5114282;28;20444;-78
2021/08/03 00:16:03;;;;;;;3.50;2.00;;;16.70;90.30;;;;;;5115067;28;20446;-79
2021/08/03 00:18:31;;;;;;;2.53;1.90;;;16.70;89.80;;;;;;5105483;28;20466;-77
2021/08/03 00:20:59;;;;;;;1.80;1.70;;;16.70;88.60;;;;;;5110724;28;20433;-77
2021/08/03 00:23:28;;;;;;;1.90;1.80;;;16.60;87.70;;;;;;5109695;28;20458;-77
2021/08/03 00:26:02;;;;;;;2.30;2.03;;;16.60;87.40;;;;;;5113194;28;20648;-77
2021/08/03 00:28:29;;;;;;;2.57;2.10;;;16.60;87.90;;;;;;5107514;28;20476;-78
2021/08/03 00:30:56;;;;;;;2.47;1.97;;;16.50;88.60;;;;;;5101998;28;20460;-77
2021/08/03 00:33:23;;;;;;;2.37;2.17;;;16.50;89.80;;;;;;5100310;28;20567;-77
2021/08/03 00:35:52;;;;;;;3.80;2.10;;;16.40;90.20;;;;;;5102942;28;20443;-77
2021/08/03 00:38:19;;;;;;;2.20;2.10;;;16.30;90.10;;;;;;5103074;28;20477;-77
2021/08/03 00:40:53;;;;;;;3.25;2.05;;;16.20;90.70;;;;;;5102910;28;20499;-77
2021/08/03 00:43:20;;;;;;;2.15;1.95;;;16.10;90.80;;;;;;5104302;28;20220;-77
2021/08/03 00:45:47;;;;;;;5.18;2.40;;;16.10;90.90;;;;;;5104478;28;20207;-77
2021/08/03 00:48:14;;;;;;;1.95;1.67;;;16.20;91.20;;;;;;5106185;28;20226;-77
2021/08/03 00:50:41;;;;;;;4.47;1.77;;;16.20;91.20;;;;;;5118062;28;20203;-78
2021/08/03 00:53:09;;;;;;;3.58;2.10;;;16.30;91.10;;;;;;5107538;28;20486;-80
2021/08/03 00:55:38;;;;;;;2.33;2.20;;;16.30;90.90;;;;;;5109814;28;20217;-78
2021/08/03 00:58:05;;;;;;;2.27;1.80;;;16.30;90.80;;;;;;5117635;28;20235;-78
2021/08/03 01:00:32;;;;;;;2.20;2.00;;;16.30;90.60;;;;;;5116703;28;20445;-79
2021/08/03 01:03:00;;;;;;;2.17;1.93;;;16.30;90.10;;;;;;5117191;28;20488;-77
2021/08/03 01:05:33;;;;;;;2.70;1.60;;;16.30;90.10;;;;;;5107085;28;20673;-78
2021/08/03 01:08:07;;;;;;;1.83;1.73;;;16.30;90.10;;;;;;5101466;28;20251;-78
2021/08/03 01:10:44;;;;;;;2.30;2.00;;;16.30;90.20;;;;;;5100376;28;20470;-78
2021/08/03 01:13:21;;;;;;;2.15;2.05;;;16.30;90.20;;;;;;5099161;28;20253;-78
2021/08/03 01:15:54;;;;;;;2.57;1.87;;;16.30;90.70;;;;;;5098994;28;20304;-78
2021/08/03 01:18:26;;;;;;;2.47;2.07;;;16.30;91.30;;;;;;5100173;28;20472;-78
2021/08/03 01:21:20;;;;;;;2.20;1.70;;;16.30;92.00;;;;;;5104429;28;20449;-78
2021/08/03 01:24:06;;;;;;;2.53;2.30;;;16.30;92.20;;;;;;5102515;28;20459;-79
2021/08/03 01:26:54;;;;;;;2.30;2.17;;;16.30;92.50;;;;;;5105035;28;20449;-79
2021/08/03 01:29:25;;;;;;;1.70;1.60;;;16.30;92.70;;;;;;5106008;28;20456;-78
2021/08/03 01:31:55;;;;;;;2.33;2.17;;;16.30;92.90;;;;;;5108048;28;20498;-77
2021/08/03 01:34:25;;;;;;;2.40;2.20;;;16.30;92.80;;;;;;5115557;28;20478;-77
2021/08/03 01:36:56;;;;;;;2.57;2.07;;;16.20;93.30;;;;;;5101692;28;20256;-78
2021/08/03 01:39:26;;;;;;;2.40;1.90;;;16.30;93.40;;;;;;5097579;28;21051;-77
2021/08/03 01:41:56;;;;;;;4.32;1.70;;;16.30;92.90;;;;;;5094449;28;20442;-78
2021/08/03 01:44:29;;;;;;;3.40;2.20;;;16.40;92.50;;;;;;5098870;28;20639;-77
2021/08/03 01:46:59;;;;;;;2.17;1.97;;;16.40;92.30;;;;;;5096908;28;20333;-78
2021/08/03 01:49:27;;;;;;;2.30;1.70;;;16.40;91.00;;;;;;5100829;28;20452;-76
2021/08/03 01:51:55;;;;;;;2.10;1.98;;;16.30;90.20;;;;;;5098250;28;20482;-77
2021/08/03 01:54:24;;;;;;;2.43;2.10;;;16.30;90.20;;;;;;5102056;28;20206;-78
2021/08/03 01:56:52;;;;;;;2.53;1.92;;;16.30;90.10;;;;;;5095991;28;20480;-77
2021/08/03 01:59:19;;;;;;;2.00;1.70;;;16.30;90.10;;;;;;5095562;28;20261;-79
2021/08/03 02:01:49;;;;;;;2.67;2.40;;;16.30;90.50;;;;;;5100015;28;20453;-79
2021/08/03 02:04:18;;;;;;;2.40;2.13;;;16.40;90.70;;;;;;5108253;28;20230;-78
2021/08/03 02:06:45;;;;;;;1.73;1.63;;;16.30;90.70;;;;;;5101868;28;20548;-78
2021/08/03 02:09:13;;;;;;;2.63;2.42;;;16.30;91.40;;;;;;5097479;28;20543;-79
2021/08/03 02:11:40;;;;;;;2.00;1.90;;;16.20;91.80;;;;;;5095540;28;20205;-78
2021/08/03 02:14:08;;;;;;;2.20;2.10;;;16.20;92.40;;;;;;5097965;28;20480;-77
2021/08/03 02:16:36;;;;;;;5.90;2.50;;;16.10;92.80;;;;;;5101606;28;20221;-78
2021/08/03 02:19:08;;;;;;;1.93;1.83;;;16.10;92.80;;;;;;5100431;28;20472;-77
2021/08/03 02:21:38;;;;;;;2.10;2.00;;;16.10;93.30;;;;;;5100019;28;20836;-78
2021/08/03 02:24:05;;;;;;;2.45;1.90;;;16.00;93.30;;;;;;5114627;28;20348;-76
2021/08/03 02:26:32;;;;;;;3.03;2.10;;;16.00;93.50;;;;;;5109951;28;20238;-78
2021/08/03 02:28:59;;;;;;;1.92;1.73;;;15.90;93.70;;;;;;5111521;28;20198;-78
2021/08/03 02:31:34;;;;;;;3.08;1.90;;;15.80;93.70;;;;;;5109896;28;20212;-79
2021/08/03 02:34:07;;;;;;;2.97;2.05;;;15.80;94.30;;;;;;5108357;28;20523;-79
2021/08/03 02:36:43;;;;;;;2.70;2.50;;;15.70;94.10;;;;;;5102542;28;20300;-78
2021/08/03 02:39:11;;;;;;;2.60;2.25;;;15.60;94.60;;;;;;5105532;28;20220;-77
2021/08/03 02:41:38;;;;;;;3.30;2.10;;;15.50;95.00;;;;;;5107143;28;20294;-77
2021/08/03 02:44:07;;;;;;;2.50;2.00;;;15.50;95.20;;;;;;5106363;28;20229;-77
2021/08/03 02:46:36;;;;;;;3.72;2.05;;;15.50;95.40;;;;;;5104477;28;20245;-77
2021/08/03 02:49:04;;;;;;;2.70;1.95;;;15.50;95.50;;;;;;5106782;28;20247;-77
2021/08/03 02:51:34;;;;;;;2.35;2.15;;;15.40;95.30;;;;;;5100795;28;20319;-77
2021/08/03 02:54:07;;;;;;;4.35;2.50;;;15.50;95.70;;;;;;5106114;28;20245;-78
2021/08/03 02:56:35;;;;;;;2.03;1.83;;;15.50;95.50;;;;;;5107440;28;20227;-79
2021/08/03 02:59:08;;;;;;;2.28;2.05;;;15.50;95.60;;;;;;5105275;28;20241;-79
2021/08/03 03:01:38;;;;;;;2.97;1.90;;;15.40;95.40;;;;;;5096786;28;20280;-78
2021/08/03 03:04:11;;;;;;;1.92;1.83;;;15.40;95.80;;;;;;5096685;28;20218;-77
2021/08/03 03:06:39;;;;;;;2.17;2.08;;;15.40;95.90;;;;;;5098199;28;20211;-79
2021/08/03 03:09:07;;;;;;;2.38;1.98;;;15.30;96.10;;;;;;5098565;28;20609;-78
2021/08/03 03:11:37;;;;;;;1.90;1.80;;;15.30;96.00;;;;;;5098119;28;20217;-78
2021/08/03 03:14:06;;;;;;;2.33;1.92;;;15.30;95.80;;;;;;5098375;28;20488;-78
2021/08/03 03:16:38;;;;;;;3.25;2.92;;;15.30;95.70;;;;;;5098853;28;20248;-78
2021/08/03 03:19:06;;;;;;;2.20;2.10;;;15.20;95.80;;;;;;5099050;28;20208;-77
2021/08/03 03:21:34;;;;;;;2.42;2.33;;;15.20;96.00;;;;;;5099534;28;20214;-77
2021/08/03 03:24:03;;;;;;;4.10;2.10;;;15.10;96.00;;;;;;5097355;28;20697;-77
2021/08/03 03:26:35;;;;;;;4.53;2.55;;;15.20;96.50;;;;;;5097720;28;20538;-77
2021/08/03 03:29:02;;;;;;;4.15;2.42;;;15.10;97.00;;;;;;5095938;28;20626;-77
2021/08/03 03:31:31;;;;;;;3.08;2.00;;;15.10;97.00;;;;;;5096013;28;20218;-77
2021/08/03 03:34:01;;;;;;;3.57;2.10;;;15.10;97.00;;;;;;5095544;28;20651;-77
2021/08/03 03:36:31;;;;;;;2.50;2.30;;;15.10;97.00;;;;;;5095806;28;20666;-77
2021/08/03 03:39:00;;;;;;;1.98;1.88;;;15.00;96.90;;;;;;5095501;28;20213;-77
2021/08/03 03:41:29;;;;;;;2.53;2.25;;;15.00;96.90;;;;;;5096078;28;20253;-78
2021/08/03 03:43:57;;;;;;;3.20;2.10;;;15.10;97.00;;;;;;5078071;28;20644;-78
2021/08/03 03:46:31;;;;;;;3.80;2.58;;;15.00;96.70;;;;;;5078288;28;20262;-77
2021/08/03 03:49:11;;;;;;;2.20;2.00;;;15.00;96.90;;;;;;5077911;28;20189;-82
2021/08/03 03:51:41;;;;;;;2.23;2.03;;;15.00;97.00;;;;;;5090115;28;20206;-78
2021/08/03 03:54:11;;;;;;;2.37;2.17;;;15.10;97.00;;;;;;5098694;28;20540;-77
2021/08/03 03:56:41;;;;;;;2.38;1.90;;;15.10;97.00;;;;;;5088427;28;20433;-79
2021/08/03 03:59:11;;;;;;;2.40;2.00;;;15.10;97.00;;;;;;5090499;28;20226;-77
2021/08/03 04:01:39;;;;;;;3.47;2.10;;;15.20;97.90;;;;;;5092704;28;20206;-81
2021/08/03 04:04:10;;;;;;;2.85;2.28;;;15.20;97.90;;;;;;5094913;28;20229;-79
2021/08/03 04:06:37;;;;;;;2.90;2.38;;;15.30;98.70;;;;;;5097619;28;20210;-76
2021/08/03 04:09:04;;;;;;;2.50;2.30;;;15.30;98.50;;;;;;5098672;28;20221;-79
2021/08/03 04:11:31;;;;;;;2.42;2.22;;;15.30;99.10;;;;;;5084743;28;20203;-78
2021/08/03 04:13:59;;;;;;;2.90;2.08;;;15.30;98.80;;;;;;5070756;28;20218;-79
2021/08/03 04:16:27;;;;;;;2.85;2.33;;;15.30;98.80;;;;;;5071587;28;20203;-78
2021/08/03 04:18:54;;;;;;;2.47;2.20;;;15.30;98.70;;;;;;5056062;28;20211;-78
2021/08/03 04:21:21;;;;;;;3.10;2.17;;;15.40;98.90;;;;;;5061686;28;20194;-78
2021/08/03 04:23:48;;;;;;;4.32;2.10;;;15.40;98.00;;;;;;5059238;28;20652;-79
2021/08/03 04:26:15;;;;;;;3.15;2.10;;;15.50;97.60;;;;;;5055326;28;20235;-78
2021/08/03 04:28:42;;;;;;;2.40;2.20;;;15.50;97.20;;;;;;5055095;28;20310;-79
2021/08/03 04:31:09;;;;;;;4.30;2.70;;;15.40;97.10;;;;;;5054680;28;20303;-78
2021/08/03 04:33:37;;;;;;;3.22;2.00;;;15.40;97.20;;;;;;5062679;28;20232;-79
2021/08/03 04:36:06;;;;;;;3.60;2.13;;;15.50;97.20;;;;;;5065771;28;20216;-79
2021/08/03 04:38:33;;;;;;;2.85;2.10;;;15.40;97.10;;;;;;5067410;28;20465;-80
2021/08/03 04:41:00;;;;;;;4.20;2.38;;;15.50;97.20;;;;;;5065828;28;20206;-81
2021/08/03 04:43:27;;;;;;;3.60;1.93;;;15.50;96.70;;;;;;5066311;28;20211;-80
2021/08/03 04:45:54;;;;;;;2.40;2.10;;;15.50;96.00;;;;;;5065986;28;20458;-81
2021/08/03 04:48:20;;;;;;;3.13;1.80;;;15.60;95.80;;;;;;5064282;28;20466;-79
2021/08/03 04:50:49;;;;;;;2.57;2.37;;;15.60;95.50;;;;;;5065518;28;20587;-78
2021/08/03 04:53:16;;;;;;;3.50;2.10;;;15.60;93.60;;;;;;5063638;28;20562;-78
2021/08/03 04:55:43;;;;;;;2.30;2.10;;;15.60;93.60;;;;;;5076991;28;20212;-77
2021/08/03 04:58:10;;;;;;;3.10;2.20;;;15.70;93.60;;;;;;5062255;28;20260;-78
2021/08/03 05:00:37;;;;;;;3.05;2.35;;;15.80;93.70;;;;;;5057854;28;20493;-79
2021/08/03 05:03:04;;;;;;;3.03;2.20;;;15.70;92.70;;;;;;5060580;28;20211;-79
2021/08/03 05:05:31;;;;;;;2.50;2.30;;;15.70;92.70;;;;;;5063036;28;20235;-81
2021/08/03 05:08:01;;;;;;;3.43;2.30;;;15.80;92.20;;;;;;5065679;28;20478;-80
2021/08/03 05:10:29;;;;;;;2.20;2.00;;;15.80;92.10;;;;;;5063230;28;20512;-80
2021/08/03 05:12:57;;;;;;;3.23;1.97;;;15.90;92.00;;;;;;5063790;28;20231;-80
2021/08/03 05:15:25;;;;;;;3.90;2.20;;;16.00;91.30;;;;;;5065312;28;20451;-82
2021/08/03 05:17:52;;;;;;;4.40;2.23;;;16.10;90.30;;;;;;5066014;28;20474;-79
2021/08/03 05:20:19;;;;;;;2.30;2.07;;;16.10;90.10;;;;;;5066110;28;20535;-80
2021/08/03 05:22:49;;;;;;;2.60;2.40;;;16.10;89.80;;;;;;5069835;28;20450;-78
2021/08/03 05:25:18;;;;;;;3.22;2.58;;;16.20;88.40;;;;;;5077847;28;20422;-79
2021/08/03 05:27:44;;;;;;;1.80;1.70;;;16.40;88.00;;;;;;5077488;28;20213;-80
2021/08/03 05:30:12;;;;;;;2.17;1.97;;;16.60;85.50;;;;;;5077130;28;20735;-79
2021/08/03 05:32:39;;;;;;;2.92;2.40;;;16.40;83.20;;;;;;5076669;28;20450;-79
2021/08/03 05:35:07;;;;;;;2.30;2.10;;;16.30;83.80;;;;;;5075002;28;20210;-78
2021/08/03 05:37:34;;;;;;;2.63;1.70;;;16.40;84.90;;;;;;5068084;28;20472;-79
2021/08/03 05:40:05;;;;;;;2.20;2.00;;;16.50;82.20;;;;;;5068152;28;20459;-77
2021/08/03 05:42:34;;;;;;;3.20;1.70;;;16.60;80.70;;;;;;5061462;28;20440;-78
2021/08/03 05:45:00;;;;;;;1.70;1.60;;;17.10;79.40;;;;;;5069700;28;20610;-77
2021/08/03 05:47:27;;;;;;;2.00;1.60;;;17.30;75.10;;;;;;5077593;28;20475;-79
2021/08/03 05:49:54;;;;;;;3.00;1.60;;;17.60;74.50;;;;;;5067231;28;20902;-77
2021/08/03 05:52:21;;;;;;;4.00;1.77;;;17.50;73.80;;;;;;5055260;28;20488;-78
2021/08/03 05:54:48;;;;;;;2.83;1.93;;;17.80;71.60;;;;;;5054848;28;20488;-84
2021/08/03 05:57:15;;;;;;;3.07;1.40;;;18.00;69.40;;;;;;5067716;28;20456;-78
2021/08/03 05:59:44;;;;;;;5.30;3.13;;;17.90;69.30;;;;;;5069171;28;20457;-78
2021/08/03 06:02:11;;;;;;;2.53;1.80;;;17.70;70.40;;;;;;5062905;28;20455;-79
2021/08/03 06:04:40;;;;;;;4.63;1.80;;;17.80;68.80;;;;;;5065066;28;20510;-80
2021/08/03 06:07:10;;;;;;;2.40;1.90;;;17.90;68.10;;;;;;5060498;28;20465;-79
2021/08/03 06:09:37;;;;;;;5.13;1.80;;;17.80;70.20;;;;;;5055969;28;20956;-78
2021/08/03 06:12:05;;;;;;;1.83;1.57;;;17.90;70.00;;;;;;5055976;28;20554;-79
2021/08/03 06:14:36;;;;;;;5.17;1.80;;;18.10;69.80;;;;;;5056812;28;20993;-77
2021/08/03 06:17:10;;;;;;;3.10;1.53;;;18.00;69.90;;;;;;5058034;28;20479;-79
2021/08/03 06:19:46;;;;;;;3.47;1.60;;;17.90;71.00;;;;;;5063680;28;20442;-80
2021/08/03 06:22:14;;;;;;;1.70;1.37;;;18.10;70.60;;;;;;5066833;28;20460;-81
2021/08/03 06:24:47;;;;;;;1.50;1.40;;;18.20;68.50;;;;;;5063525;28;20535;-80
2021/08/03 06:27:16;;;;;;;4.27;1.53;;;18.20;67.80;;;;;;5072940;28;20468;-79
2021/08/03 06:29:54;;;;;;;3.60;2.27;;;18.30;67.90;;;;;;5067617;28;20459;-80
2021/08/03 06:35:09;;;;;;;2.33;1.57;;;18.50;66.40;;;;;;5070890;28;20435;-80
2021/08/03 06:37:42;;;;;;;1.57;1.47;;;18.50;66.40;;;;;;5068507;28;20579;-80
2021/08/03 06:40:11;;;;;;;3.30;1.77;;;18.60;66.50;;;;;;5060752;28;20463;-79
2021/08/03 06:42:56;;;;;;;2.70;1.70;;;18.70;66.70;;;;;;5068831;28;20479;-78
2021/08/03 06:45:28;;;;;;;3.13;2.00;;;19.00;62.80;;;;;;5074271;28;20453;-78
2021/08/03 06:48:04;;;;;;;3.40;1.43;;;19.20;61.60;;;;;;5067572;28;20480;-79
2021/08/03 06:50:33;;;;;;;4.57;2.00;;;19.50;60.80;;;;;;5071275;28;20459;-79
2021/08/03 06:53:06;;;;;;;5.00;2.20;;;19.60;59.10;;;;;;5074048;28;20451;-78
2021/08/03 06:55:35;;;;;;;3.00;2.00;;;19.80;58.40;;;;;;5059852;28;20513;-79
2021/08/03 06:58:04;;;;;;;2.30;1.80;;;19.80;58.40;;;;;;5059589;28;20466;-79
2021/08/03 07:00:36;;;;;;;2.17;1.50;;;19.60;58.20;;;;;;5059931;28;20497;-78
2021/08/03 07:03:06;;;;;;;1.50;1.40;;;19.30;56.40;;;;;;5068574;28;20437;-77
2021/08/03 07:05:37;;;;;;;2.60;1.70;;;18.80;57.50;;;;;;5069982;28;20422;-80
2021/08/03 07:08:05;;;;;;;2.80;1.60;;;18.50;59.90;;;;;;5071800;28;20482;-76
2021/08/03 07:10:32;;;;;;;2.80;1.77;;;18.40;60.70;;;;;;5073762;28;20451;-80
2021/08/03 07:13:02;;;;;;;4.80;1.80;;;18.20;62.80;;;;;;5078476;28;20419;-79
2021/08/03 07:15:30;;;;;;;2.00;1.90;;;18.00;64.50;;;;;;5078753;28;20444;-82
2021/08/03 07:17:57;;;;;;;2.13;1.93;;;17.80;66.90;;;;;;5076195;28;20463;-81
2021/08/03 07:20:25;;;;;;;2.30;2.00;;;17.60;70.70;;;;;;5079149;28;20447;-79
2021/08/03 07:22:52;;;;;;;3.23;2.40;;;17.50;75.40;;;;;;5076685;28;20438;-79
2021/08/03 07:25:19;;;;;;;2.30;2.10;;;17.40;82.70;;;;;;5064269;28;20425;-80
2021/08/03 07:27:47;;;;;;;3.83;2.43;;;17.20;85.70;;;;;;5072136;28;20890;-79
2021/08/03 07:30:15;;;;;;;3.77;2.03;;;17.00;88.70;;;;;;5069464;28;20475;-79
2021/08/03 07:32:42;;;;;;;4.30;2.67;;;16.90;91.00;;;;;;5061550;28;20501;-79
2021/08/03 07:35:10;;;;;;;2.40;2.20;;;16.90;92.60;;;;;;5071069;28;20565;-78
2021/08/03 07:37:39;;;;;;;7.93;2.47;;;17.00;93.30;;;;;;5066703;28;20844;-78
2021/08/03 07:40:07;;;;;;;3.10;2.90;;;17.20;94.60;;;;;;5055895;28;20542;-79
2021/08/03 07:42:34;;;;;;;4.13;2.80;;;17.30;94.20;;;;;;5056575;28;20462;-78
2021/08/03 07:45:01;;;;;;;2.40;2.20;;;17.40;93.70;;;;;;5055412;28;20540;-78
2021/08/03 07:47:28;;;;;;;2.63;2.40;;;17.40;91.90;;;;;;5055403;28;20992;-78
2021/08/03 07:49:57;;;;;;;4.17;3.27;;;17.40;91.80;;;;;;5055425;28;20461;-80
2021/08/03 07:52:25;;;;;;;3.63;2.93;;;17.30;92.30;;;;;;5069415;28;20459;-79
2021/08/03 07:54:54;;;;;;;3.60;3.30;;;17.10;92.90;;;;;;5075129;28;21065;-79
2021/08/03 07:57:23;;;;;;;4.77;3.07;;;17.00;94.20;;;;;;5078358;28;20868;-80
2021/08/03 07:59:51;;;;;;;6.60;4.10;;;16.90;96.00;;;;;;5079453;28;20461;-80
2021/08/03 08:02:18;;;;;;;5.53;3.57;;;16.90;95.70;;;;;;5095669;28;20496;-83
2021/08/03 08:04:45;;;;;;;3.70;3.37;;;16.70;95.90;;;;;;5087683;28;20471;-81
2021/08/03 08:07:11;;;;;;;3.10;2.90;;;16.60;96.60;;;;;;5098173;28;20489;-79
2021/08/03 08:09:38;;;;;;;7.33;3.30;;;16.60;97.80;;;;;;5089331;28;20952;-80
2021/08/03 08:12:11;;;;;;;5.13;3.27;;;16.50;98.10;;;;;;5081209;28;20468;-79
2021/08/03 08:14:38;;;;;;;4.30;3.30;;;16.40;98.40;;;;;;5076236;28;20479;-78
2021/08/03 08:17:05;;;;;;;3.10;2.90;;;16.40;99.30;;;;;;5075637;28;20473;-77
2021/08/03 08:19:32;;;;;;;7.87;4.30;;;16.40;99.60;;;;;;5078374;28;20963;-78
2021/08/03 08:21:59;;;;;;;4.83;3.30;;;16.40;99.90;;;;;;5075175;28;20486;-78
2021/08/03 08:24:26;;;;;;;4.80;3.50;;;16.40;99.90;;;;;;5075322;28;20456;-79
2021/08/03 08:27:38;;;;;;;3.77;3.37;;;16.40;99.90;;;;;;5075967;28;20591;-78
2021/08/03 08:30:07;;;;;;;6.20;3.70;;;16.40;99.90;;;;;;5064751;28;20478;-79
2021/08/03 08:32:35;;;;;;;3.90;3.60;;;16.40;99.90;;;;;;5075835;28;20544;-77
2021/08/03 08:35:02;;;;;;;5.07;3.60;;;16.50;99.90;;;;;;5075090;28;20486;-77
2021/08/03 08:37:29;;;;;;;3.70;3.40;;;16.50;99.90;;;;;;5077258;28;20509;-78
2021/08/03 08:39:56;;;;;;;4.70;3.40;;;16.70;99.90;;;;;;5083720;28;20463;-77
2021/08/03 08:42:23;;;;;;;5.53;3.37;;;16.70;99.90;;;;;;5079835;28;20546;-79
2021/08/03 08:44:50;;;;;;;3.77;3.10;;;16.80;99.90;;;;;;5075764;28;20437;-79
2021/08/03 08:47:19;;;;;;;3.30;2.60;;;17.00;99.90;;;;;;5077301;28;20466;-79
2021/08/03 08:49:47;;;;;;;3.50;2.40;;;16.90;98.70;;;;;;5083620;28;20478;-78
2021/08/03 08:52:15;;;;;;;3.53;2.63;;;16.90;97.40;;;;;;5083046;28;20663;-78
2021/08/03 08:54:42;;;;;;;3.73;2.30;;;16.90;96.90;;;;;;5082482;28;20562;-78
2021/08/03 08:57:09;;;;;;;2.20;2.00;;;16.80;96.30;;;;;;5092784;28;20502;-78
2021/08/03 08:59:37;;;;;;;4.28;2.30;;;16.70;95.90;;;;;;5097220;28;20462;-76
2021/08/03 09:02:04;;;;;;;3.53;2.13;;;16.70;96.30;;;;;;5097273;28;20215;-77
2021/08/03 09:04:32;;;;;;;3.17;2.70;;;16.60;96.30;;;;;;5082544;28;20478;-78
2021/08/03 09:07:05;;;;;;;3.35;3.05;;;16.50;97.60;;;;;;5081599;28;20496;-78
2021/08/03 09:09:40;;;;;;;3.30;2.97;;;16.40;99.30;;;;;;5081374;28;20210;-78
2021/08/03 09:12:07;;;;;;;4.60;2.90;;;16.50;99.90;;;;;;5089254;28;20191;-77
2021/08/03 09:14:35;;;;;;;2.63;2.43;;;16.40;99.90;;;;;;5095291;28;20516;-78
2021/08/03 09:17:03;;;;;;;3.90;2.60;;;16.50;99.90;;;;;;5080903;28;20470;-78
2021/08/03 09:19:34;;;;;;;3.10;2.80;;;16.50;99.90;;;;;;5087510;28;20478;-79
2021/08/03 09:22:16;;;;;;;4.20;3.50;;;16.50;99.90;;;;;;5085940;28;20551;-77
2021/08/03 09:24:44;;;;;;;3.60;3.03;;;16.60;99.90;;;;;;5089602;28;20542;-78
2021/08/03 09:27:31;;;;;;;2.90;2.70;;;16.70;99.90;;;;;;5089547;28;20503;-77
2021/08/03 09:29:58;;;;;;;2.70;2.47;;;16.80;99.90;;;;;;5080552;28;20481;-78
2021/08/03 09:32:33;;;;;;;3.03;2.73;;;16.70;99.90;;;;;;5077991;28;20459;-77
2021/08/03 09:35:10;;;;;;;3.30;2.80;;;16.80;99.90;;;;;;5077777;28;21063;-76
2021/08/03 09:37:37;;;;;;;5.10;2.33;;;16.90;99.90;;;;;;5078367;28;20505;-77
2021/08/03 09:40:06;;;;;;;2.37;2.17;;;17.00;99.90;;;;;;5077331;28;20528;-77
2021/08/03 09:42:34;;;;;;;2.67;2.47;;;16.90;99.30;;;;;;5080660;28;20455;-77
2021/08/03 09:45:05;;;;;;;2.13;2.00;;;16.90;98.30;;;;;;5083147;28;20494;-77
2021/08/03 09:47:35;;;;;;;2.77;1.63;;;16.90;97.70;;;;;;5083449;28;20910;-77
2021/08/03 09:50:06;;;;;;;3.70;2.03;;;17.00;97.60;;;;;;5079065;28;20872;-77
2021/08/03 09:52:36;;;;;;;2.20;1.77;;;16.90;97.30;;;;;;5082026;28;20864;-78
2021/08/03 09:55:14;;;;;;;2.50;2.03;;;17.00;96.90;;;;;;5081679;28;20560;-76
2021/08/03 09:57:42;;;;;;;4.30;2.10;;;17.00;95.20;;;;;;5082307;28;20493;-77
2021/08/03 10:00:24;;;;;;;3.13;1.83;;;17.00;95.50;;;;;;5081252;28;20529;-77
2021/08/03 10:02:52;;;;;;;5.30;1.80;;;17.10;95.10;;;;;;5082483;28;20482;-78
2021/08/03 10:05:19;;;;;;;2.93;1.67;;;16.80;90.30;;;;;;5079704;28;20509;-77
2021/08/03 10:07:48;;;;;;;1.87;1.30;;;16.60;93.20;;;;;;5082434;28;20553;-79
2021/08/03 10:10:15;;;;;;;2.67;1.40;;;16.90;92.60;;;;;;5082201;28;20479;-78
2021/08/03 10:12:42;;;;;;;1.70;1.60;;;17.20;90.50;;;;;;5080258;28;20473;-76
2021/08/03 10:15:11;;;;;;;1.30;1.20;;;17.40;90.70;;;;;;5086586;28;20487;-77
2021/08/03 10:17:39;;;;;;;1.57;1.00;;;17.80;88.70;;;;;;5086171;28;20476;-78
2021/08/03 10:20:08;;;;;;;2.37;1.30;;;18.20;82.50;;;;;;5087531;28;20450;-78
2021/08/03 10:22:39;;;;;;;1.30;1.10;;;18.70;75.50;;;;;;5096539;28;20455;-80
2021/08/03 10:25:11;;;;;;;2.57;1.27;;;19.30;76.00;;;;;;5095088;28;20461;-80
2021/08/03 10:27:44;;;;;;;1.13;1.03;;;20.00;73.60;;;;;;5097259;28;20472;-80
2021/08/03 10:30:35;;;;;;;1.23;1.17;;;20.10;66.80;;;;;;5095413;28;20510;-80
2021/08/03 10:33:09;;;;;;;1.20;1.10;;;20.20;66.40;;;;;;5091707;28;20462;-77
2021/08/03 10:35:42;;;;;;;1.70;1.33;;;19.40;71.00;;;;;;5076575;28;20846;-78
2021/08/03 10:38:14;;;;;;;1.53;1.23;;;19.80;73.90;;;;;;5076434;28;20476;-78
2021/08/03 10:41:18;;;;;;;1.63;1.17;;;20.10;67.90;;;;;;5078131;28;20553;-78
2021/08/03 10:43:54;;;;;;;1.97;1.43;;;19.80;70.80;;;;;;5083172;28;20464;-78
2021/08/03 10:46:42;;;;;;;3.40;1.40;;;20.20;70.90;;;;;;5093292;28;20474;-79
2021/08/03 10:49:13;;;;;;;2.40;1.10;;;20.40;68.20;;;;;;5089578;28;20455;-78
2021/08/03 10:51:51;;;;;;;1.60;1.13;;;20.40;65.80;;;;;;5089640;28;20462;-78
2021/08/03 10:54:19;;;;;;;1.50;1.30;;;20.50;64.70;;;;;;5094091;28;20437;-78
2021/08/03 10:57:21;;;;;;;2.73;1.50;;;20.30;67.00;;;;;;5093084;28;20476;-77
2021/08/03 11:00:06;;;;;;;1.30;1.20;;;20.20;65.80;;;;;;5084877;28;20450;-78
2021/08/03 11:02:44;;;;;;;3.73;1.03;;;20.20;68.00;;;;;;5083925;28;20546;-77
2021/08/03 11:05:27;;;;;;;1.30;1.17;;;20.30;66.00;;;;;;5086557;28;20516;-77
2021/08/03 11:07:54;;;;;;;1.23;1.13;;;20.70;64.60;;;;;;5090116;28;20456;-77
2021/08/03 11:10:34;;;;;;;1.30;1.20;;;20.70;63.90;;;;;;5090687;28;20454;-78
2021/08/03 11:13:04;;;;;;;1.47;1.07;;;20.90;60.90;;;;;;5094348;28;20461;-79
2021/08/03 11:15:41;;;;;;;1.23;1.10;;;20.80;59.30;;;;;;5097283;28;20766;-79
2021/08/03 11:18:11;;;;;;;1.10;1.10;;;20.70;61.00;;;;;;5098832;28;20453;-78
2021/08/03 11:21:04;;;;;;;1.60;1.47;;;20.70;61.80;;;;;;5100122;28;20414;-77
2021/08/03 11:23:57;;;;;;;1.20;1.10;;;20.70;59.30;;;;;;5095375;28;20414;-78
2021/08/03 11:26:26;;;;;;;2.03;1.10;;;20.90;59.40;;;;;;5089515;28;20506;-78
2021/08/03 11:29:01;;;;;;;1.50;1.30;;;21.30;58.10;;;;;;5089248;28;20457;-77
2021/08/03 11:31:58;;;;;;;1.50;1.27;;;21.70;58.10;;;;;;5088278;28;20459;-78
2021/08/03 11:34:29;;;;;;;1.20;1.10;;;21.70;54.90;;;;;;5089571;28;20418;-78
2021/08/03 11:37:02;;;;;;;1.30;1.10;;;21.80;55.20;;;;;;5090958;28;20477;-78
2021/08/03 11:39:31;;;;;;;2.33;1.20;;;22.00;56.10;;;;;;5089810;28;20451;-78
2021/08/03 11:41:58;;;;;;;2.07;1.33;;;22.10;54.10;;;;;;5084550;28;20466;-79
2021/08/03 11:44:28;;;;;;;1.93;1.40;;;22.00;55.20;;;;;;5085961;28;20480;-78
2021/08/03 11:47:01;;;;;;;1.20;1.10;;;22.10;55.70;;;;;;5086074;28;20549;-78
2021/08/03 11:49:34;;;;;;;1.43;1.27;;;22.10;54.40;;;;;;5087311;28;20858;-78
2021/08/03 11:52:13;;;;;;;1.50;1.00;;;22.30;55.90;;;;;;5086889;28;20876;-77
2021/08/03 11:54:41;;;;;;;1.53;1.20;;;22.60;52.00;;;;;;5084189;28;20436;-79
2021/08/03 11:57:35;;;;;;;1.50;1.10;;;22.50;51.20;;;;;;5083733;28;20478;-80
2021/08/03 12:00:11;;;;;;;2.13;1.93;;;22.40;52.10;;;;;;5078703;28;20456;-79
2021/08/03 12:02:40;;;;;;;1.30;1.20;;;22.70;51.40;;;;;;5079617;28;20487;-78
2021/08/03 12:05:22;;;;;;;2.93;1.37;;;23.00;50.40;;;;;;5081768;28;20453;-79
2021/08/03 12:07:52;;;;;;;1.73;1.20;;;23.10;50.30;;;;;;5078527;28;20535;-78
2021/08/03 12:10:21;;;;;;;1.63;1.53;;;23.10;50.40;;;;;;5078072;28;20448;-78
2021/08/03 12:12:49;;;;;;;2.10;1.37;;;23.10;51.80;;;;;;5081331;28;20499;-79
2021/08/03 12:15:19;;;;;;;1.50;1.40;;;23.40;49.90;;;;;;5077058;28;20480;-78
2021/08/03 12:17:48;;;;;;;1.23;1.20;;;23.40;49.40;;;;;;5076147;28;20582;-78
2021/08/03 12:20:27;;;;;;;1.70;1.60;;;23.50;48.50;;;;;;5076294;28;20460;-78
2021/08/03 12:22:55;;;;;;;2.07;1.40;;;23.30;49.00;;;;;;5075851;28;20538;-78
2021/08/03 12:25:24;;;;;;;1.70;1.60;;;23.20;49.30;;;;;;5075440;28;20638;-79
2021/08/03 12:27:54;;;;;;;1.17;1.17;;;23.30;48.40;;;;;;5078778;28;20477;-79
2021/08/03 12:30:36;;;;;;;2.60;1.90;;;23.30;49.20;;;;;;5077327;28;20447;-78
2021/08/03 12:33:03;;;;;;;2.10;1.70;;;23.50;49.20;;;;;;5080825;28;20985;-78
2021/08/03 12:35:31;;;;;;;2.00;1.80;;;23.50;48.80;;;;;;5077862;28;20484;-79
2021/08/03 12:38:18;;;;;;;1.60;1.50;;;23.70;48.00;;;;;;5077073;28;20500;-77
2021/08/03 12:40:46;;;;;;;3.03;1.67;;;23.70;45.80;;;;;;5088011;28;20451;-83
2021/08/03 12:43:13;;;;;;;1.83;1.50;;;23.60;46.50;;;;;;5097244;28;20434;-82
2021/08/03 12:45:42;;;;;;;1.50;1.40;;;23.70;47.40;;;;;;5089650;28;20472;-83
2021/08/03 12:48:11;;;;;;;1.50;1.40;;;24.00;45.40;;;;;;5096950;28;20466;-83
2021/08/03 12:50:50;;;;;;;1.37;1.23;;;24.00;45.30;;;;;;5081914;28;20754;-78
2021/08/03 12:53:25;;;;;;;1.43;1.30;;;24.00;45.60;;;;;;5076436;28;20495;-79
2021/08/03 12:55:53;;;;;;;2.10;1.30;;;23.80;43.50;;;;;;5075615;28;20537;-79
2021/08/03 12:58:34;;;;;;;2.80;1.23;;;23.80;45.50;;;;;;5077438;28;20911;-79
2021/08/03 13:01:11;;;;;;;1.80;1.37;;;23.90;43.00;;;;;;5078409;28;20542;-80
2021/08/03 13:03:39;;;;;;;4.30;1.30;;;23.70;43.60;;;;;;5078174;28;20940;-78
2021/08/03 13:06:07;;;;;;;1.33;1.10;;;23.50;44.40;;;;;;5076998;28;20458;-78
2021/08/03 13:08:35;;;;;;;1.30;1.20;;;23.40;44.30;;;;;;5078946;28;20467;-78